sensor_id;sensor_type;location;lat;lon;timestamp;P1;durP1;ratioP1;P2;durP2;ratioP2
46551;SDS011;32278;51.810;4.712;2023-04-25T00:01:39;16.08;;;3.33;;
46551;SDS011;32278;51.810;4.712;2023-04-25T00:04:05;13.30;;;3.55;;
46551;SDS011;32278;51.810;4.712;2023-04-25T00:06:31;16.10;;;4.05;;
46551;SDS011;32278;51.810;4.712;2023-04-25T00:08:57;12.85;;;3.58;;
46551;SDS011;32278;51.810;4.712;2023-04-25T00:11:23;20.48;;;4.53;;
46551;SDS011;32278;51.810;4.712;2023-04-25T00:13:49;13.40;;;3.00;;
46551;SDS011;32278;51.810;4.712;2023-04-25T00:16:15;12.30;;;4.45;;
46551;SDS011;32278;51.810;4.712;2023-04-25T00:18:42;14.80;;;3.55;;
46551;SDS011;32278;51.810;4.712;2023-04-25T00:21:08;19.35;;;3.72;;
46551;SDS011;32278;51.810;4.712;2023-04-25T00:23:34;20.73;;;3.80;;
46551;SDS011;32278;51.810;4.712;2023-04-25T00:26:01;22.92;;;4.72;;
46551;SDS011;32278;51.810;4.712;2023-04-25T00:28:27;23.77;;;4.03;;
46551;SDS011;32278;51.810;4.712;2023-04-25T00:30:53;19.83;;;3.90;;
46551;SDS011;32278;51.810;4.712;2023-04-25T00:33:19;20.40;;;4.88;;
46551;SDS011;32278;51.810;4.712;2023-04-25T00:35:46;12.68;;;3.40;;
46551;SDS011;32278;51.810;4.712;2023-04-25T00:38:12;15.88;;;3.85;;
46551;SDS011;32278;51.810;4.712;2023-04-25T00:40:38;21.20;;;5.28;;
46551;SDS011;32278;51.810;4.712;2023-04-25T00:43:04;19.65;;;4.32;;
46551;SDS011;32278;51.810;4.712;2023-04-25T00:45:30;35.65;;;5.43;;
46551;SDS011;32278;51.810;4.712;2023-04-25T00:47:56;19.95;;;4.38;;
46551;SDS011;32278;51.810;4.712;2023-04-25T00:50:23;22.58;;;4.00;;
46551;SDS011;32278;51.810;4.712;2023-04-25T00:52:49;16.25;;;3.63;;
46551;SDS011;32278;51.810;4.712;2023-04-25T00:55:15;20.52;;;4.72;;
46551;SDS011;32278;51.810;4.712;2023-04-25T00:57:42;16.00;;;3.67;;
46551;SDS011;32278;51.810;4.712;2023-04-25T01:00:08;24.50;;;4.32;;
46551;SDS011;32278;51.810;4.712;2023-04-25T01:02:35;13.20;;;3.70;;
46551;SDS011;32278;51.810;4.712;2023-04-25T01:05:02;26.98;;;4.80;;
46551;SDS011;32278;51.810;4.712;2023-04-25T01:07:28;29.88;;;4.72;;
46551;SDS011;32278;51.810;4.712;2023-04-25T01:09:55;23.35;;;4.65;;
46551;SDS011;32278;51.810;4.712;2023-04-25T01:12:21;19.30;;;3.92;;
46551;SDS011;32278;51.810;4.712;2023-04-25T01:14:47;12.90;;;4.00;;
46551;SDS011;32278;51.810;4.712;2023-04-25T01:17:13;19.83;;;4.47;;
46551;SDS011;32278;51.810;4.712;2023-04-25T01:19:39;14.30;;;4.70;;
46551;SDS011;32278;51.810;4.712;2023-04-25T01:22:05;18.33;;;4.13;;
46551;SDS011;32278;51.810;4.712;2023-04-25T01:24:32;17.45;;;3.40;;
46551;SDS011;32278;51.810;4.712;2023-04-25T01:26:58;18.88;;;4.15;;
46551;SDS011;32278;51.810;4.712;2023-04-25T01:29:26;23.70;;;5.78;;
46551;SDS011;32278;51.810;4.712;2023-04-25T01:31:53;12.60;;;3.58;;
46551;SDS011;32278;51.810;4.712;2023-04-25T01:34:19;26.58;;;4.10;;
46551;SDS011;32278;51.810;4.712;2023-04-25T01:36:49;20.58;;;4.28;;
46551;SDS011;32278;51.810;4.712;2023-04-25T01:39:16;13.95;;;3.80;;
46551;SDS011;32278;51.810;4.712;2023-04-25T01:41:42;13.80;;;3.38;;
46551;SDS011;32278;51.810;4.712;2023-04-25T01:44:08;15.82;;;3.88;;
46551;SDS011;32278;51.810;4.712;2023-04-25T01:46:34;16.27;;;4.95;;
46551;SDS011;32278;51.810;4.712;2023-04-25T01:49:00;26.15;;;4.00;;
46551;SDS011;32278;51.810;4.712;2023-04-25T01:51:26;18.05;;;3.53;;
46551;SDS011;32278;51.810;4.712;2023-04-25T01:53:52;10.05;;;3.75;;
46551;SDS011;32278;51.810;4.712;2023-04-25T01:56:19;22.08;;;3.30;;
46551;SDS011;32278;51.810;4.712;2023-04-25T01:58:45;9.73;;;3.53;;
46551;SDS011;32278;51.810;4.712;2023-04-25T02:01:12;21.02;;;3.97;;
46551;SDS011;32278;51.810;4.712;2023-04-25T02:03:38;10.07;;;3.03;;
46551;SDS011;32278;51.810;4.712;2023-04-25T02:06:04;19.08;;;4.35;;
46551;SDS011;32278;51.810;4.712;2023-04-25T02:08:30;24.02;;;5.80;;
46551;SDS011;32278;51.810;4.712;2023-04-25T02:10:56;13.70;;;3.28;;
46551;SDS011;32278;51.810;4.712;2023-04-25T02:13:22;15.35;;;4.10;;
46551;SDS011;32278;51.810;4.712;2023-04-25T02:15:48;13.77;;;4.40;;
46551;SDS011;32278;51.810;4.712;2023-04-25T02:18:14;12.02;;;3.53;;
46551;SDS011;32278;51.810;4.712;2023-04-25T02:20:43;21.23;;;3.17;;
46551;SDS011;32278;51.810;4.712;2023-04-25T02:23:09;8.52;;;2.75;;
46551;SDS011;32278;51.810;4.712;2023-04-25T02:25:35;14.88;;;3.25;;
46551;SDS011;32278;51.810;4.712;2023-04-25T02:28:01;13.23;;;3.13;;
46551;SDS011;32278;51.810;4.712;2023-04-25T02:30:27;16.35;;;3.67;;
46551;SDS011;32278;51.810;4.712;2023-04-25T02:32:53;12.75;;;2.65;;
46551;SDS011;32278;51.810;4.712;2023-04-25T02:35:19;16.50;;;2.90;;
46551;SDS011;32278;51.810;4.712;2023-04-25T02:37:45;11.98;;;3.00;;
46551;SDS011;32278;51.810;4.712;2023-04-25T02:40:11;13.85;;;3.25;;
46551;SDS011;32278;51.810;4.712;2023-04-25T02:42:37;9.90;;;2.85;;
46551;SDS011;32278;51.810;4.712;2023-04-25T02:45:03;11.38;;;3.80;;
46551;SDS011;32278;51.810;4.712;2023-04-25T02:47:30;13.27;;;3.80;;
46551;SDS011;32278;51.810;4.712;2023-04-25T02:49:56;11.85;;;2.75;;
46551;SDS011;32278;51.810;4.712;2023-04-25T02:52:22;9.68;;;3.75;;
46551;SDS011;32278;51.810;4.712;2023-04-25T02:54:49;9.88;;;2.35;;
46551;SDS011;32278;51.810;4.712;2023-04-25T02:57:15;13.13;;;3.50;;
46551;SDS011;32278;51.810;4.712;2023-04-25T02:59:41;17.00;;;3.75;;
46551;SDS011;32278;51.810;4.712;2023-04-25T03:02:07;12.27;;;3.17;;
46551;SDS011;32278;51.810;4.712;2023-04-25T03:04:36;14.23;;;4.13;;
46551;SDS011;32278;51.810;4.712;2023-04-25T03:09:32;11.80;;;2.80;;
46551;SDS011;32278;51.810;4.712;2023-04-25T03:11:58;12.57;;;3.20;;
46551;SDS011;32278;51.810;4.712;2023-04-25T03:14:24;9.73;;;4.38;;
46551;SDS011;32278;51.810;4.712;2023-04-25T03:16:50;17.40;;;2.72;;
46551;SDS011;32278;51.810;4.712;2023-04-25T03:19:16;9.00;;;1.92;;
46551;SDS011;32278;51.810;4.712;2023-04-25T03:21:42;6.10;;;1.92;;
46551;SDS011;32278;51.810;4.712;2023-04-25T03:24:08;6.07;;;2.10;;
46551;SDS011;32278;51.810;4.712;2023-04-25T03:26:35;12.55;;;1.65;;
46551;SDS011;32278;51.810;4.712;2023-04-25T03:29:02;10.05;;;2.17;;
46551;SDS011;32278;51.810;4.712;2023-04-25T03:31:28;8.73;;;1.90;;
46551;SDS011;32278;51.810;4.712;2023-04-25T03:33:54;12.63;;;2.05;;
46551;SDS011;32278;51.810;4.712;2023-04-25T03:36:19;6.40;;;1.88;;
46551;SDS011;32278;51.810;4.712;2023-04-25T03:38:45;7.15;;;1.83;;
46551;SDS011;32278;51.810;4.712;2023-04-25T03:41:13;6.30;;;1.88;;
46551;SDS011;32278;51.810;4.712;2023-04-25T03:43:39;9.95;;;2.08;;
46551;SDS011;32278;51.810;4.712;2023-04-25T03:46:06;10.57;;;2.70;;
46551;SDS011;32278;51.810;4.712;2023-04-25T03:48:32;6.78;;;1.85;;
46551;SDS011;32278;51.810;4.712;2023-04-25T03:50:58;8.38;;;1.98;;
46551;SDS011;32278;51.810;4.712;2023-04-25T03:53:25;7.10;;;2.13;;
46551;SDS011;32278;51.810;4.712;2023-04-25T03:55:51;7.82;;;1.98;;
46551;SDS011;32278;51.810;4.712;2023-04-25T03:58:17;13.05;;;2.42;;
46551;SDS011;32278;51.810;4.712;2023-04-25T04:00:43;7.82;;;2.03;;
46551;SDS011;32278;51.810;4.712;2023-04-25T04:03:09;8.25;;;1.77;;
46551;SDS011;32278;51.810;4.712;2023-04-25T04:05:36;9.43;;;2.50;;
46551;SDS011;32278;51.810;4.712;2023-04-25T04:08:02;12.77;;;2.05;;
46551;SDS011;32278;51.810;4.712;2023-04-25T04:10:28;6.88;;;1.88;;
46551;SDS011;32278;51.810;4.712;2023-04-25T04:12:54;9.57;;;2.17;;
46551;SDS011;32278;51.810;4.712;2023-04-25T04:15:20;12.15;;;2.63;;
46551;SDS011;32278;51.810;4.712;2023-04-25T04:17:47;7.43;;;2.17;;
46551;SDS011;32278;51.810;4.712;2023-04-25T04:20:13;7.93;;;2.38;;
46551;SDS011;32278;51.810;4.712;2023-04-25T04:22:39;7.43;;;2.28;;
46551;SDS011;32278;51.810;4.712;2023-04-25T04:25:05;9.68;;;2.95;;
46551;SDS011;32278;51.810;4.712;2023-04-25T04:27:31;11.15;;;2.90;;
46551;SDS011;32278;51.810;4.712;2023-04-25T04:29:58;11.82;;;1.98;;
46551;SDS011;32278;51.810;4.712;2023-04-25T04:32:24;16.55;;;2.63;;
46551;SDS011;32278;51.810;4.712;2023-04-25T04:34:50;7.35;;;1.77;;
46551;SDS011;32278;51.810;4.712;2023-04-25T04:37:17;15.73;;;3.03;;
46551;SDS011;32278;51.810;4.712;2023-04-25T04:39:43;13.73;;;2.63;;
46551;SDS011;32278;51.810;4.712;2023-04-25T04:42:09;7.72;;;1.63;;
46551;SDS011;32278;51.810;4.712;2023-04-25T04:44:36;11.73;;;2.50;;
46551;SDS011;32278;51.810;4.712;2023-04-25T04:47:03;8.70;;;2.20;;
46551;SDS011;32278;51.810;4.712;2023-04-25T04:49:31;11.77;;;2.60;;
46551;SDS011;32278;51.810;4.712;2023-04-25T04:51:57;12.75;;;2.60;;
46551;SDS011;32278;51.810;4.712;2023-04-25T04:54:24;12.32;;;2.50;;
46551;SDS011;32278;51.810;4.712;2023-04-25T04:56:50;12.57;;;2.95;;
46551;SDS011;32278;51.810;4.712;2023-04-25T04:59:17;14.00;;;2.40;;
46551;SDS011;32278;51.810;4.712;2023-04-25T05:01:43;10.93;;;2.92;;
46551;SDS011;32278;51.810;4.712;2023-04-25T05:04:09;11.18;;;3.53;;
46551;SDS011;32278;51.810;4.712;2023-04-25T05:06:36;13.73;;;2.35;;
46551;SDS011;32278;51.810;4.712;2023-04-25T05:09:03;10.55;;;2.80;;
46551;SDS011;32278;51.810;4.712;2023-04-25T05:11:29;6.57;;;2.22;;
46551;SDS011;32278;51.810;4.712;2023-04-25T05:13:57;10.27;;;2.10;;
46551;SDS011;32278;51.810;4.712;2023-04-25T05:16:24;7.82;;;2.45;;
46551;SDS011;32278;51.810;4.712;2023-04-25T05:18:50;10.13;;;2.70;;
46551;SDS011;32278;51.810;4.712;2023-04-25T05:21:16;10.05;;;3.60;;
46551;SDS011;32278;51.810;4.712;2023-04-25T05:23:42;10.70;;;3.40;;
46551;SDS011;32278;51.810;4.712;2023-04-25T05:26:08;11.23;;;2.67;;
46551;SDS011;32278;51.810;4.712;2023-04-25T05:28:38;21.23;;;3.15;;
46551;SDS011;32278;51.810;4.712;2023-04-25T05:31:04;8.88;;;2.22;;
46551;SDS011;32278;51.810;4.712;2023-04-25T05:33:30;10.30;;;2.38;;
46551;SDS011;32278;51.810;4.712;2023-04-25T05:35:56;12.13;;;2.42;;
46551;SDS011;32278;51.810;4.712;2023-04-25T05:38:22;20.75;;;3.03;;
46551;SDS011;32278;51.810;4.712;2023-04-25T05:40:48;12.57;;;2.47;;
46551;SDS011;32278;51.810;4.712;2023-04-25T05:43:14;11.18;;;4.20;;
46551;SDS011;32278;51.810;4.712;2023-04-25T05:45:40;9.30;;;2.97;;
46551;SDS011;32278;51.810;4.712;2023-04-25T05:48:06;6.93;;;2.03;;
46551;SDS011;32278;51.810;4.712;2023-04-25T05:50:32;12.48;;;2.00;;
46551;SDS011;32278;51.810;4.712;2023-04-25T05:52:58;10.95;;;4.20;;
46551;SDS011;32278;51.810;4.712;2023-04-25T05:55:24;12.98;;;2.53;;
46551;SDS011;32278;51.810;4.712;2023-04-25T05:57:50;11.50;;;2.05;;
46551;SDS011;32278;51.810;4.712;2023-04-25T06:00:16;9.57;;;2.55;;
46551;SDS011;32278;51.810;4.712;2023-04-25T06:02:43;9.13;;;2.58;;
46551;SDS011;32278;51.810;4.712;2023-04-25T06:05:09;5.85;;;2.80;;
46551;SDS011;32278;51.810;4.712;2023-04-25T06:07:35;11.70;;;2.38;;
46551;SDS011;32278;51.810;4.712;2023-04-25T06:10:01;17.10;;;2.20;;
46551;SDS011;32278;51.810;4.712;2023-04-25T06:12:31;16.25;;;3.40;;
46551;SDS011;32278;51.810;4.712;2023-04-25T06:14:57;6.88;;;2.03;;
46551;SDS011;32278;51.810;4.712;2023-04-25T06:17:23;16.48;;;3.05;;
46551;SDS011;32278;51.810;4.712;2023-04-25T06:19:49;12.50;;;2.63;;
46551;SDS011;32278;51.810;4.712;2023-04-25T06:22:15;16.10;;;2.85;;
46551;SDS011;32278;51.810;4.712;2023-04-25T06:24:41;8.63;;;2.35;;
46551;SDS011;32278;51.810;4.712;2023-04-25T06:27:07;10.68;;;1.88;;
46551;SDS011;32278;51.810;4.712;2023-04-25T06:29:33;9.88;;;1.90;;
46551;SDS011;32278;51.810;4.712;2023-04-25T06:31:59;11.55;;;1.98;;
46551;SDS011;32278;51.810;4.712;2023-04-25T06:34:25;10.93;;;3.25;;
46551;SDS011;32278;51.810;4.712;2023-04-25T06:36:51;11.93;;;2.40;;
46551;SDS011;32278;51.810;4.712;2023-04-25T06:39:17;10.80;;;2.20;;
46551;SDS011;32278;51.810;4.712;2023-04-25T06:41:45;17.98;;;3.00;;
46551;SDS011;32278;51.810;4.712;2023-04-25T06:44:10;11.35;;;2.30;;
46551;SDS011;32278;51.810;4.712;2023-04-25T06:46:37;13.57;;;2.60;;
46551;SDS011;32278;51.810;4.712;2023-04-25T06:49:03;6.15;;;1.77;;
46551;SDS011;32278;51.810;4.712;2023-04-25T06:51:29;8.65;;;2.28;;
46551;SDS011;32278;51.810;4.712;2023-04-25T06:53:55;5.63;;;1.58;;
46551;SDS011;32278;51.810;4.712;2023-04-25T06:56:21;3.70;;;1.40;;
46551;SDS011;32278;51.810;4.712;2023-04-25T06:58:48;10.70;;;3.63;;
46551;SDS011;32278;51.810;4.712;2023-04-25T07:01:14;5.22;;;1.50;;
46551;SDS011;32278;51.810;4.712;2023-04-25T07:03:40;7.05;;;1.45;;
46551;SDS011;32278;51.810;4.712;2023-04-25T07:06:06;4.63;;;1.60;;
46551;SDS011;32278;51.810;4.712;2023-04-25T07:08:32;6.20;;;1.35;;
46551;SDS011;32278;51.810;4.712;2023-04-25T07:10:58;4.55;;;1.48;;
46551;SDS011;32278;51.810;4.712;2023-04-25T07:13:24;7.32;;;1.20;;
46551;SDS011;32278;51.810;4.712;2023-04-25T07:15:50;4.03;;;1.33;;
46551;SDS011;32278;51.810;4.712;2023-04-25T07:18:16;2.33;;;1.00;;
46551;SDS011;32278;51.810;4.712;2023-04-25T07:20:42;2.53;;;0.77;;
46551;SDS011;32278;51.810;4.712;2023-04-25T07:23:08;6.25;;;1.55;;
46551;SDS011;32278;51.810;4.712;2023-04-25T07:25:34;5.63;;;1.25;;
46551;SDS011;32278;51.810;4.712;2023-04-25T07:28:00;5.15;;;0.98;;
46551;SDS011;32278;51.810;4.712;2023-04-25T07:30:26;6.43;;;1.35;;
46551;SDS011;32278;51.810;4.712;2023-04-25T07:32:52;7.50;;;1.77;;
46551;SDS011;32278;51.810;4.712;2023-04-25T07:35:18;6.18;;;1.38;;
46551;SDS011;32278;51.810;4.712;2023-04-25T07:37:44;6.03;;;1.38;;
46551;SDS011;32278;51.810;4.712;2023-04-25T07:40:10;2.47;;;1.13;;
46551;SDS011;32278;51.810;4.712;2023-04-25T07:42:36;5.80;;;1.25;;
46551;SDS011;32278;51.810;4.712;2023-04-25T07:45:02;6.13;;;1.27;;
46551;SDS011;32278;51.810;4.712;2023-04-25T07:47:28;2.65;;;1.02;;
46551;SDS011;32278;51.810;4.712;2023-04-25T07:49:55;9.27;;;1.60;;
46551;SDS011;32278;51.810;4.712;2023-04-25T07:52:22;9.07;;;1.38;;
46551;SDS011;32278;51.810;4.712;2023-04-25T07:54:48;9.63;;;1.55;;
46551;SDS011;32278;51.810;4.712;2023-04-25T07:57:14;4.60;;;1.08;;
46551;SDS011;32278;51.810;4.712;2023-04-25T07:59:41;11.25;;;1.38;;
46551;SDS011;32278;51.810;4.712;2023-04-25T08:02:08;7.00;;;1.38;;
46551;SDS011;32278;51.810;4.712;2023-04-25T08:04:33;8.07;;;2.35;;
46551;SDS011;32278;51.810;4.712;2023-04-25T08:06:59;6.80;;;1.40;;
46551;SDS011;32278;51.810;4.712;2023-04-25T08:09:25;7.72;;;1.27;;
46551;SDS011;32278;51.810;4.712;2023-04-25T08:11:52;5.07;;;1.40;;
46551;SDS011;32278;51.810;4.712;2023-04-25T08:14:18;8.07;;;1.50;;
46551;SDS011;32278;51.810;4.712;2023-04-25T08:16:44;4.50;;;1.83;;
46551;SDS011;32278;51.810;4.712;2023-04-25T08:19:10;7.25;;;1.73;;
46551;SDS011;32278;51.810;4.712;2023-04-25T08:21:36;3.90;;;1.40;;
46551;SDS011;32278;51.810;4.712;2023-04-25T08:24:03;5.38;;;1.70;;
46551;SDS011;32278;51.810;4.712;2023-04-25T08:26:29;4.03;;;1.45;;
46551;SDS011;32278;51.810;4.712;2023-04-25T08:28:55;4.28;;;1.00;;
46551;SDS011;32278;51.810;4.712;2023-04-25T08:31:20;8.13;;;1.92;;
46551;SDS011;32278;51.810;4.712;2023-04-25T08:33:46;2.97;;;1.30;;
46551;SDS011;32278;51.810;4.712;2023-04-25T08:36:12;6.50;;;1.73;;
46551;SDS011;32278;51.810;4.712;2023-04-25T08:38:39;7.88;;;1.98;;
46551;SDS011;32278;51.810;4.712;2023-04-25T08:41:05;4.97;;;1.02;;
46551;SDS011;32278;51.810;4.712;2023-04-25T08:43:32;10.85;;;2.67;;
46551;SDS011;32278;51.810;4.712;2023-04-25T08:45:59;5.57;;;1.17;;
46551;SDS011;32278;51.810;4.712;2023-04-25T08:48:26;8.25;;;1.63;;
46551;SDS011;32278;51.810;4.712;2023-04-25T08:50:54;6.43;;;1.60;;
46551;SDS011;32278;51.810;4.712;2023-04-25T08:53:21;6.97;;;0.90;;
46551;SDS011;32278;51.810;4.712;2023-04-25T08:55:47;7.95;;;1.63;;
46551;SDS011;32278;51.810;4.712;2023-04-25T08:58:14;13.68;;;1.30;;
46551;SDS011;32278;51.810;4.712;2023-04-25T09:00:40;3.30;;;0.85;;
46551;SDS011;32278;51.810;4.712;2023-04-25T09:03:06;4.10;;;1.20;;
46551;SDS011;32278;51.810;4.712;2023-04-25T09:05:33;2.40;;;0.60;;
46551;SDS011;32278;51.810;4.712;2023-04-25T09:08:00;4.65;;;1.10;;
46551;SDS011;32278;51.810;4.712;2023-04-25T09:10:26;6.18;;;2.88;;
46551;SDS011;32278;51.810;4.712;2023-04-25T09:13:08;3.22;;;1.33;;
46551;SDS011;32278;51.810;4.712;2023-04-25T09:18:01;15.00;;;2.85;;
46551;SDS011;32278;51.810;4.712;2023-04-25T09:20:27;8.88;;;1.60;;
46551;SDS011;32278;51.810;4.712;2023-04-25T09:23:04;6.13;;;1.20;;
46551;SDS011;32278;51.810;4.712;2023-04-25T09:25:36;2.28;;;1.23;;
46551;SDS011;32278;51.810;4.712;2023-04-25T09:28:04;4.32;;;0.93;;
46551;SDS011;32278;51.810;4.712;2023-04-25T09:30:32;10.82;;;1.30;;
46551;SDS011;32278;51.810;4.712;2023-04-25T09:33:04;4.53;;;1.05;;
46551;SDS011;32278;51.810;4.712;2023-04-25T09:35:35;4.03;;;0.95;;
46551;SDS011;32278;51.810;4.712;2023-04-25T09:38:06;7.03;;;1.20;;
46551;SDS011;32278;51.810;4.712;2023-04-25T09:40:32;6.00;;;1.10;;
46551;SDS011;32278;51.810;4.712;2023-04-25T09:42:58;6.63;;;1.00;;
46551;SDS011;32278;51.810;4.712;2023-04-25T09:45:24;4.28;;;1.10;;
46551;SDS011;32278;51.810;4.712;2023-04-25T09:47:50;6.15;;;1.80;;
46551;SDS011;32278;51.810;4.712;2023-04-25T09:53:10;6.93;;;0.95;;
46551;SDS011;32278;51.810;4.712;2023-04-25T09:55:36;4.82;;;1.02;;
46551;SDS011;32278;51.810;4.712;2023-04-25T09:58:05;3.28;;;0.90;;
46551;SDS011;32278;51.810;4.712;2023-04-25T10:00:32;6.05;;;0.95;;
46551;SDS011;32278;51.810;4.712;2023-04-25T10:02:58;4.50;;;0.88;;
46551;SDS011;32278;51.810;4.712;2023-04-25T10:05:26;2.58;;;1.00;;
46551;SDS011;32278;51.810;4.712;2023-04-25T10:07:53;5.57;;;1.30;;
46551;SDS011;32278;51.810;4.712;2023-04-25T10:10:20;5.53;;;1.48;;
46551;SDS011;32278;51.810;4.712;2023-04-25T10:12:50;5.97;;;1.60;;
46551;SDS011;32278;51.810;4.712;2023-04-25T10:15:17;6.32;;;1.17;;
46551;SDS011;32278;51.810;4.712;2023-04-25T10:17:43;9.40;;;1.30;;
46551;SDS011;32278;51.810;4.712;2023-04-25T10:20:09;6.88;;;1.63;;
46551;SDS011;32278;51.810;4.712;2023-04-25T10:22:39;2.78;;;1.08;;
46551;SDS011;32278;51.810;4.712;2023-04-25T10:25:06;6.32;;;1.13;;
46551;SDS011;32278;51.810;4.712;2023-04-25T10:27:33;11.90;;;1.08;;
46551;SDS011;32278;51.810;4.712;2023-04-25T10:30:00;6.53;;;1.52;;
46551;SDS011;32278;51.810;4.712;2023-04-25T10:32:27;5.07;;;1.08;;
46551;SDS011;32278;51.810;4.712;2023-04-25T10:34:53;4.53;;;1.80;;
46551;SDS011;32278;51.810;4.712;2023-04-25T10:37:19;5.90;;;1.98;;
46551;SDS011;32278;51.810;4.712;2023-04-25T10:39:45;4.68;;;1.05;;
46551;SDS011;32278;51.810;4.712;2023-04-25T10:42:11;6.72;;;1.27;;
46551;SDS011;32278;51.810;4.712;2023-04-25T10:44:37;5.97;;;1.58;;
46551;SDS011;32278;51.810;4.712;2023-04-25T10:47:07;4.63;;;1.05;;
46551;SDS011;32278;51.810;4.712;2023-04-25T10:49:35;6.82;;;0.90;;
46551;SDS011;32278;51.810;4.712;2023-04-25T10:52:11;2.70;;;1.08;;
46551;SDS011;32278;51.810;4.712;2023-04-25T10:54:41;11.82;;;1.20;;
46551;SDS011;32278;51.810;4.712;2023-04-25T10:57:07;4.80;;;1.10;;
46551;SDS011;32278;51.810;4.712;2023-04-25T10:59:33;10.93;;;1.30;;
46551;SDS011;32278;51.810;4.712;2023-04-25T11:01:59;4.78;;;1.17;;
46551;SDS011;32278;51.810;4.712;2023-04-25T11:04:36;3.90;;;1.35;;
46551;SDS011;32278;51.810;4.712;2023-04-25T11:09:48;7.75;;;1.20;;
46551;SDS011;32278;51.810;4.712;2023-04-25T11:12:14;7.07;;;1.27;;
46551;SDS011;32278;51.810;4.712;2023-04-25T11:14:42;6.10;;;1.98;;
46551;SDS011;32278;51.810;4.712;2023-04-25T11:17:08;3.25;;;1.13;;
46551;SDS011;32278;51.810;4.712;2023-04-25T11:19:35;5.55;;;1.10;;
46551;SDS011;32278;51.810;4.712;2023-04-25T11:22:02;2.85;;;0.90;;
46551;SDS011;32278;51.810;4.712;2023-04-25T11:24:29;6.93;;;0.90;;
46551;SDS011;32278;51.810;4.712;2023-04-25T11:26:55;6.32;;;1.00;;
46551;SDS011;32278;51.810;4.712;2023-04-25T11:29:26;7.45;;;1.38;;
46551;SDS011;32278;51.810;4.712;2023-04-25T11:31:52;10.43;;;1.73;;
46551;SDS011;32278;51.810;4.712;2023-04-25T11:34:20;8.57;;;1.50;;
46551;SDS011;32278;51.810;4.712;2023-04-25T11:36:47;3.13;;;1.05;;
46551;SDS011;32278;51.810;4.712;2023-04-25T11:39:12;3.58;;;1.30;;
46551;SDS011;32278;51.810;4.712;2023-04-25T11:41:40;4.38;;;1.05;;
46551;SDS011;32278;51.810;4.712;2023-04-25T11:44:06;7.50;;;1.30;;
46551;SDS011;32278;51.810;4.712;2023-04-25T11:46:35;6.22;;;1.40;;
46551;SDS011;32278;51.810;4.712;2023-04-25T11:49:01;1.88;;;0.90;;
46551;SDS011;32278;51.810;4.712;2023-04-25T11:51:27;3.13;;;1.05;;
46551;SDS011;32278;51.810;4.712;2023-04-25T11:53:53;5.13;;;1.40;;
46551;SDS011;32278;51.810;4.712;2023-04-25T11:56:20;6.20;;;1.05;;
46551;SDS011;32278;51.810;4.712;2023-04-25T11:58:58;4.57;;;0.98;;
46551;SDS011;32278;51.810;4.712;2023-04-25T12:01:26;7.47;;;2.28;;
46551;SDS011;32278;51.810;4.712;2023-04-25T12:03:52;3.58;;;1.08;;
46551;SDS011;32278;51.810;4.712;2023-04-25T12:06:18;7.25;;;1.52;;
46551;SDS011;32278;51.810;4.712;2023-04-25T12:09:00;7.43;;;1.20;;
46551;SDS011;32278;51.810;4.712;2023-04-25T12:11:27;8.18;;;1.27;;
46551;SDS011;32278;51.810;4.712;2023-04-25T12:13:55;6.38;;;0.95;;
46551;SDS011;32278;51.810;4.712;2023-04-25T12:16:21;4.07;;;1.00;;
46551;SDS011;32278;51.810;4.712;2023-04-25T12:18:47;7.97;;;1.40;;
46551;SDS011;32278;51.810;4.712;2023-04-25T12:21:13;4.43;;;0.95;;
46551;SDS011;32278;51.810;4.712;2023-04-25T12:23:39;2.17;;;1.00;;
46551;SDS011;32278;51.810;4.712;2023-04-25T12:26:06;5.95;;;0.98;;
46551;SDS011;32278;51.810;4.712;2023-04-25T12:28:32;4.55;;;0.93;;
46551;SDS011;32278;51.810;4.712;2023-04-25T12:31:05;2.92;;;1.10;;
46551;SDS011;32278;51.810;4.712;2023-04-25T12:33:32;8.40;;;1.20;;
46551;SDS011;32278;51.810;4.712;2023-04-25T12:35:58;6.15;;;1.50;;
46551;SDS011;32278;51.810;4.712;2023-04-25T12:38:29;4.60;;;1.13;;
46551;SDS011;32278;51.810;4.712;2023-04-25T12:40:56;11.80;;;1.33;;
46551;SDS011;32278;51.810;4.712;2023-04-25T12:43:22;7.60;;;1.67;;
46551;SDS011;32278;51.810;4.712;2023-04-25T12:45:48;5.90;;;1.10;;
46551;SDS011;32278;51.810;4.712;2023-04-25T12:48:18;4.65;;;1.05;;
46551;SDS011;32278;51.810;4.712;2023-04-25T12:50:44;2.53;;;0.55;;
46551;SDS011;32278;51.810;4.712;2023-04-25T12:53:13;5.15;;;0.90;;
46551;SDS011;32278;51.810;4.712;2023-04-25T12:55:39;4.97;;;0.80;;
46551;SDS011;32278;51.810;4.712;2023-04-25T12:58:05;3.63;;;1.30;;
46551;SDS011;32278;51.810;4.712;2023-04-25T13:00:31;5.65;;;0.82;;
46551;SDS011;32278;51.810;4.712;2023-04-25T13:02:57;2.30;;;0.88;;
46551;SDS011;32278;51.810;4.712;2023-04-25T13:05:23;4.10;;;1.02;;
46551;SDS011;32278;51.810;4.712;2023-04-25T13:07:49;5.35;;;1.10;;
46551;SDS011;32278;51.810;4.712;2023-04-25T13:10:16;6.50;;;1.63;;
46551;SDS011;32278;51.810;4.712;2023-04-25T13:12:42;3.47;;;0.80;;
46551;SDS011;32278;51.810;4.712;2023-04-25T13:15:09;4.85;;;1.25;;
46551;SDS011;32278;51.810;4.712;2023-04-25T13:17:36;3.58;;;1.00;;
46551;SDS011;32278;51.810;4.712;2023-04-25T13:20:03;4.22;;;1.08;;
46551;SDS011;32278;51.810;4.712;2023-04-25T13:22:31;2.10;;;1.00;;
46551;SDS011;32278;51.810;4.712;2023-04-25T13:24:57;5.45;;;1.52;;
46551;SDS011;32278;51.810;4.712;2023-04-25T13:27:23;3.83;;;1.02;;
46551;SDS011;32278;51.810;4.712;2023-04-25T13:29:48;4.07;;;1.17;;
46551;SDS011;32278;51.810;4.712;2023-04-25T13:32:14;2.72;;;1.02;;
46551;SDS011;32278;51.810;4.712;2023-04-25T13:34:40;6.45;;;1.83;;
46551;SDS011;32278;51.810;4.712;2023-04-25T13:37:06;5.40;;;1.63;;
46551;SDS011;32278;51.810;4.712;2023-04-25T13:39:32;4.05;;;1.23;;
46551;SDS011;32278;51.810;4.712;2023-04-25T13:41:58;6.57;;;1.40;;
46551;SDS011;32278;51.810;4.712;2023-04-25T13:44:25;5.10;;;1.90;;
46551;SDS011;32278;51.810;4.712;2023-04-25T13:46:51;8.07;;;1.17;;
46551;SDS011;32278;51.810;4.712;2023-04-25T13:49:17;5.53;;;1.27;;
46551;SDS011;32278;51.810;4.712;2023-04-25T13:51:43;2.05;;;0.90;;
46551;SDS011;32278;51.810;4.712;2023-04-25T13:54:09;5.80;;;0.90;;
46551;SDS011;32278;51.810;4.712;2023-04-25T13:56:35;5.13;;;1.05;;
46551;SDS011;32278;51.810;4.712;2023-04-25T13:59:01;7.65;;;1.20;;
46551;SDS011;32278;51.810;4.712;2023-04-25T14:01:27;5.82;;;1.20;;
46551;SDS011;32278;51.810;4.712;2023-04-25T14:03:55;6.00;;;0.77;;
46551;SDS011;32278;51.810;4.712;2023-04-25T14:06:21;5.18;;;1.10;;
46551;SDS011;32278;51.810;4.712;2023-04-25T14:08:49;9.52;;;1.67;;
46551;SDS011;32278;51.810;4.712;2023-04-25T14:11:15;3.97;;;1.10;;
46551;SDS011;32278;51.810;4.712;2023-04-25T14:13:43;6.28;;;1.30;;
46551;SDS011;32278;51.810;4.712;2023-04-25T14:16:09;4.22;;;1.00;;
46551;SDS011;32278;51.810;4.712;2023-04-25T14:18:35;8.75;;;1.42;;
46551;SDS011;32278;51.810;4.712;2023-04-25T14:21:01;6.78;;;1.27;;
46551;SDS011;32278;51.810;4.712;2023-04-25T14:23:27;7.70;;;1.38;;
46551;SDS011;32278;51.810;4.712;2023-04-25T14:25:53;9.38;;;2.42;;
46551;SDS011;32278;51.810;4.712;2023-04-25T14:28:19;11.48;;;2.05;;
46551;SDS011;32278;51.810;4.712;2023-04-25T14:30:45;6.88;;;1.42;;
46551;SDS011;32278;51.810;4.712;2023-04-25T14:33:11;4.97;;;0.77;;
46551;SDS011;32278;51.810;4.712;2023-04-25T14:35:38;8.00;;;2.03;;
46551;SDS011;32278;51.810;4.712;2023-04-25T14:38:04;5.25;;;1.20;;
46551;SDS011;32278;51.810;4.712;2023-04-25T14:40:30;6.03;;;1.25;;
46551;SDS011;32278;51.810;4.712;2023-04-25T14:42:56;8.80;;;2.22;;
46551;SDS011;32278;51.810;4.712;2023-04-25T14:45:22;8.20;;;1.20;;
46551;SDS011;32278;51.810;4.712;2023-04-25T14:47:48;9.25;;;1.17;;
46551;SDS011;32278;51.810;4.712;2023-04-25T14:50:14;8.95;;;1.40;;